Furnas — CSBK — position and weather

sailwx.info

Track history (hours):
 
Tides and Currents Weather Stations Pressure Air Temp Water Temp Dewpoint Dewpoint Depression Visibility Wind Speed Wind Dir Waves Ship Positions

Furnas

Last reported at 2017-Oct-17 01:58 UTC. Time now 2017-Oct-17 02:21 UTC.
Position N 38°43' W 009°07'.

Length 100 m; draft 6.2 m.

Type: Ship. MMSI: 204708000.

Date/timePositionNaut miles runAvg speedWind from/ knotsBaromVisibWave heightAir tempDewpointWater temp
2017-Oct-17 01:58N 38°43' W 009°07'0 0.0
2017-Oct-17 01:28N 38°43' W 009°07'0 0.0
2017-Oct-17 00:58N 38°43' W 009°07'0 0.0
2017-Oct-17 00:28N 38°43' W 009°07'0 0.0
2017-Oct-16 23:58N 38°43' W 009°07'0 0.0
2017-Oct-16 22:07N 38°43' W 009°07'0 0.0
2017-Oct-16 21:01N 38°43' W 009°07'0 0.0
2017-Oct-16 20:37N 38°43' W 009°07'0 0.0
2017-Oct-16 20:25N 38°43' W 009°07'0 0.0
2017-Oct-16 19:55N 38°43' W 009°07'0 0.0
2017-Oct-16 19:28N 38°43' W 009°07'0 0.0
2017-Oct-16 18:58N 38°43' W 009°07'0 0.0
2017-Oct-16 18:28N 38°43' W 009°07'0 0.0
2017-Oct-16 17:55N 38°43' W 009°07'0 0.0
2017-Oct-16 17:19N 38°43' W 009°07'0 0.0
2017-Oct-16 16:58N 38°43' W 009°07'0 0.0
2017-Oct-16 16:28N 38°43' W 009°07'0 0.0
2017-Oct-16 15:55N 38°43' W 009°07'0 0.0
2017-Oct-16 15:25N 38°43' W 009°07'0 0.0
2017-Oct-16 14:58N 38°43' W 009°07'0 0.0
2017-Oct-16 13:58N 38°43' W 009°07'0 0.0
2017-Oct-16 13:25N 38°43' W 009°07'0 0.0
2017-Oct-16 12:55N 38°43' W 009°07'0 0.0
2017-Oct-16 12:28N 38°43' W 009°07'0 0.0
2017-Oct-16 11:58N 38°43' W 009°07'0 0.0
2017-Oct-16 11:28N 38°43' W 009°07'0 0.0
2017-Oct-16 10:58N 38°43' W 009°07'0 0.0
2017-Oct-16 10:25N 38°43' W 009°07'0 0.0
2017-Oct-16 09:58N 38°43' W 009°07'0 0.0
2017-Oct-16 09:04N 38°43' W 009°07'0 0.0
2017-Oct-16 06:28N 38°43' W 009°07'0 0.0
2017-Oct-16 05:58N 38°43' W 009°07'0 0.0
2017-Oct-16 05:28N 38°43' W 009°07'0 0.0
2017-Oct-16 04:58N 38°43' W 009°07'0 0.0
2017-Oct-16 04:25N 38°43' W 009°07'0 0.0
2017-Oct-16 03:58N 38°43' W 009°07'0 0.0
2017-Oct-16 03:28N 38°43' W 009°07'0 0.0
2017-Oct-16 02:56N 38°43' W 009°07'0 0.2
2017-Oct-16 02:30N 38°43' W 009°07'4 7.8
2017-Oct-16 02:00N 38°41' W 009°11'612.7
2017-Oct-16 01:30N 38°40' W 009°19'713.8
2017-Oct-16 01:00N 38°36' W 009°26'714.2
2017-Oct-16 00:30N 38°35' W 009°35'714.2
2017-Oct-16 00:00N 38°33' W 009°44'714.1
2017-Oct-15 23:30N 38°31' W 009°53'713.8
2017-Oct-15 23:00N 38°30' W 010°01'713.8
2017-Oct-15 22:30N 38°29' W 010°10'713.7
2017-Oct-15 22:01N 38°29' W 010°19'713.6
2017-Oct-15 21:31N 38°28' W 010°28'713.4
2017-Oct-15 21:01N 38°28' W 010°36'713.2
2017-Oct-15 20:31N 38°27' W 010°44'713.4
2017-Oct-15 20:00N 38°27' W 010°53'713.6
2017-Oct-15 19:30N 38°26' W 011°02'713.8
2017-Oct-15 19:00N 38°25' W 011°10'713.9
2017-Oct-15 18:30N 38°25' W 011°19'713.9
2017-Oct-15 18:00N 38°24' W 011°28'714.3
2017-Oct-15 17:31N 38°23' W 011°37'714.6
2017-Oct-15 17:00N 38°22' W 011°46'714.5
2017-Oct-15 16:30N 38°21' W 011°56'714.5
2017-Oct-15 16:00N 38°20' W 012°05'714.2
2017-Oct-15 15:30N 38°19' W 012°14'714.2
2017-Oct-15 15:00N 38°18' W 012°23'1414.2
2017-Oct-15 14:00N 38°16' W 012°40'714.2
2017-Oct-15 13:30N 38°15' W 012°49'714.2
2017-Oct-15 13:00N 38°14' W 012°58'714.1
2017-Oct-15 12:30N 38°13' W 013°07'714.2
2017-Oct-15 12:01N 38°12' W 013°16'2813.7
2017-Oct-15 09:59N 38°07' W 013°51'41914.1
2017-Oct-14 04:10N 37°41' W 022°41'1814.1
2017-Oct-14 02:54N 37°41' W 023°04'814.1
2017-Oct-14 02:19N 37°41' W 023°14'1114.4
2017-Oct-14 01:31N 37°41' W 023°29'113.5
2017-Oct-14 01:29N 37°41' W 023°29'714.4
2017-Oct-14 01:00N 37°41' W 023°38'714.3
2017-Oct-14 00:30N 37°40' W 023°47'714.3
2017-Oct-14 00:00N 37°40' W 023°56'714.3
2017-Oct-13 23:30N 37°40' W 024°05'714.2
2017-Oct-13 23:00N 37°40' W 024°14'714.4
2017-Oct-13 22:30N 37°40' W 024°23'714.6
2017-Oct-13 22:00N 37°40' W 024°32'714.5
2017-Oct-13 21:30N 37°40' W 024°42'714.2
2017-Oct-13 21:01N 37°40' W 024°51'714.0
2017-Oct-13 20:30N 37°40' W 024°59'714.3
2017-Oct-13 20:00N 37°40' W 025°08'714.5
2017-Oct-13 19:31N 37°40' W 025°18'714.1
2017-Oct-13 19:01N 37°40' W 025°26'713.6
2017-Oct-13 18:31N 37°42' W 025°35'5 9.5
2017-Oct-13 18:00N 37°44' W 025°40'0 0.0
2017-Oct-13 17:30N 37°44' W 025°40'0 0.0
2017-Oct-13 17:00N 37°44' W 025°40'0 0.0
2017-Oct-13 16:30N 37°44' W 025°40'0 0.0
2017-Oct-13 16:00N 37°44' W 025°40'0 0.0
2017-Oct-13 15:30N 37°44' W 025°40'0 0.0
2017-Oct-13 15:00N 37°44' W 025°40'0 0.0
2017-Oct-13 14:30N 37°44' W 025°40'0 0.0
2017-Oct-13 14:00N 37°44' W 025°40'0 0.0
2017-Oct-13 13:30N 37°44' W 025°40'0 0.0
2017-Oct-13 13:00N 37°44' W 025°40'0 0.0
2017-Oct-13 12:30N 37°44' W 025°40'0 0.0
2017-Oct-13 12:00N 37°44' W 025°40'0 0.0
2017-Oct-13 11:30N 37°44' W 025°40'0 0.0
2017-Oct-13 11:00N 37°44' W 025°40'0 0.0
2017-Oct-13 10:30N 37°44' W 025°40'0 0.0
2017-Oct-13 10:00N 37°44' W 025°40'0 0.0
2017-Oct-13 09:30N 37°44' W 025°40'0 0.0
2017-Oct-13 09:00N 37°44' W 025°40'0 0.0
2017-Oct-13 08:30N 37°44' W 025°40'0 0.0
2017-Oct-13 08:00N 37°44' W 025°40'0 0.0
2017-Oct-13 07:30N 37°44' W 025°40'0 0.0
2017-Oct-13 07:00N 37°44' W 025°40'0 0.0
2017-Oct-13 06:30N 37°44' W 025°40'0 0.0
2017-Oct-13 06:00N 37°44' W 025°40'0 0.0
2017-Oct-13 05:30N 37°44' W 025°40'0 0.0
2017-Oct-13 05:00N 37°44' W 025°40'0 0.0
2017-Oct-13 04:30N 37°44' W 025°40'0 0.0
2017-Oct-13 04:00N 37°44' W 025°40'0 0.0
2017-Oct-13 03:30N 37°44' W 025°40'0 0.0
2017-Oct-13 03:00N 37°44' W 025°40'0 0.0
2017-Oct-13 02:30N 37°44' W 025°40'0 0.0
2017-Oct-13 02:00N 37°44' W 025°40'0 0.0
2017-Oct-13 01:30N 37°44' W 025°40'0 0.0
2017-Oct-13 01:00N 37°44' W 025°40'0 0.0
2017-Oct-13 00:30N 37°44' W 025°40'0 0.0
2017-Oct-13 00:00N 37°44' W 025°40'0 0.0
2017-Oct-12 23:30N 37°44' W 025°40'0 0.0
2017-Oct-12 23:00N 37°44' W 025°40'0 0.0
2017-Oct-12 22:30N 37°44' W 025°40'4 7.4
2017-Oct-12 22:00N 37°41' W 025°37'815.4
2017-Oct-12 21:30N 37°35' W 025°32'815.5
2017-Oct-12 21:00N 37°28' W 025°28'815.5
2017-Oct-12 20:31N 37°21' W 025°24'815.5
2017-Oct-12 20:00N 37°13' W 025°21'815.3
2017-Oct-12 19:30N 37°06' W 025°17'815.3
2017-Oct-12 19:00N 36°59' W 025°13'4 8.3
2017-Oct-12 18:29N 36°57' W 025°09'0 0.0
2017-Oct-12 17:56N 36°57' W 025°09'0 0.0
2017-Oct-12 17:29N 36°57' W 025°09'0 0.0
2017-Oct-12 16:59N 36°57' W 025°09'0 0.0
2017-Oct-12 16:29N 36°57' W 025°09'0 0.0
2017-Oct-12 15:59N 36°57' W 025°09'0 0.0
2017-Oct-12 15:29N 36°57' W 025°09'0 0.0
2017-Oct-12 14:56N 36°57' W 025°09'0 0.0
2017-Oct-12 14:29N 36°57' W 025°09'0 0.0
2017-Oct-12 13:59N 36°57' W 025°09'0 0.0
2017-Oct-12 13:29N 36°57' W 025°09'0 0.0
2017-Oct-12 12:59N 36°57' W 025°09'0 0.0
2017-Oct-12 12:26N 36°57' W 025°09'0 0.0
2017-Oct-12 11:59N 36°57' W 025°09'0 0.0
2017-Oct-12 11:29N 36°57' W 025°09'0 0.0
2017-Oct-12 10:59N 36°57' W 025°09'0 0.0
2017-Oct-12 10:29N 36°57' W 025°09'0 0.0
2017-Oct-12 09:59N 36°57' W 025°09'3 5.6
2017-Oct-12 09:30N 36°54' W 025°11'714.7
2017-Oct-12 09:00N 36°58' W 025°19'815.0
2017-Oct-12 08:30N 37°02' W 025°27'815.2
2017-Oct-12 08:00N 37°06' W 025°35'815.1
2017-Oct-12 07:30N 37°10' W 025°43'714.7
2017-Oct-12 07:00N 37°14' W 025°50'715.1
2017-Oct-12 06:30N 37°19' W 025°58'815.2
2017-Oct-12 06:00N 37°23' W 026°06'815.2
2017-Oct-12 05:30N 37°27' W 026°14'815.1
2017-Oct-12 05:00N 37°31' W 026°22'815.1
2017-Oct-12 04:30N 37°36' W 026°30'714.9
2017-Oct-12 04:00N 37°40' W 026°37'714.7
2017-Oct-12 03:30N 37°45' W 026°45'714.7
2017-Oct-12 03:00N 37°49' W 026°52'714.8
2017-Oct-12 02:30N 37°54' W 026°59'815.1
2017-Oct-12 02:00N 37°59' W 027°07'815.3
2017-Oct-12 01:30N 38°03' W 027°14'814.9
2017-Oct-12 01:00N 38°08' W 027°22'814.9
2017-Oct-12 00:30N 38°13' W 027°29'714.6
2017-Oct-12 00:00N 38°17' W 027°37'915.3
2017-Oct-11 23:26N 38°23' W 027°45'715.1
2017-Oct-11 22:59N 38°27' W 027°52'714.9
2017-Oct-11 22:30N 38°31' W 027°59'815.2
2017-Oct-11 22:00N 38°36' W 028°07'612.4
2017-Oct-11 21:30N 38°41' W 028°12'0 0.4
2017-Oct-11 20:58N 38°41' W 028°12'0 0.0
2017-Oct-11 20:28N 38°41' W 028°12'0 0.0
2017-Oct-11 19:52N 38°41' W 028°12'0 0.0
2017-Oct-11 19:28N 38°41' W 028°12'1 3.3
2017-Oct-11 19:00N 38°39' W 028°13'1 2.5
2017-Oct-11 18:24N 38°41' W 028°12'55 3.0
2017-Oct-10 23:50N 38°43' W 027°01'1 4.0
2017-Oct-10 23:28N 38°43' W 027°03'0 0.0
2017-Oct-10 16:19N 38°43' W 027°03'0 0.0
2017-Oct-10 09:04N 38°43' W 027°03'0 0.0
2017-Oct-10 08:52N 38°43' W 027°03'0 0.0
2017-Oct-10 08:13N 38°43' W 027°03'0 0.0
2017-Oct-10 07:15N 38°43' W 027°03'2 4.7
2017-Oct-10 06:49N 38°43' W 027°01'2 7.1
2017-Oct-10 06:31N 38°41' W 026°60'1 2.3
2017-Oct-10 05:55N 38°43' W 026°60'512.0
2017-Oct-10 05:30N 38°39' W 026°55'713.8
2017-Oct-10 05:01N 38°34' W 026°49'714.1
2017-Oct-10 04:30N 38°29' W 026°43'714.3
2017-Oct-10 04:00N 38°24' W 026°37'714.3
2017-Oct-10 03:31N 38°19' W 026°30'714.4
2017-Oct-10 03:01N 38°14' W 026°24'714.6
2017-Oct-10 02:31N 38°08' W 026°18'714.5
2017-Oct-10 02:01N 38°03' W 026°12'714.7
2017-Oct-10 01:31N 37°58' W 026°05'815.1
2017-Oct-10 01:00N 37°52' W 025°59'815.1
2017-Oct-10 00:30N 37°47' W 025°52'714.2
2017-Oct-10 00:01N 37°43' W 025°45'4 8.7
2017-Oct-09 23:31N 37°44' W 025°40'0 0.4
2017-Oct-09 23:00N 37°44' W 025°40'0 0.0
2017-Oct-09 22:30N 37°44' W 025°40'0 0.0
2017-Oct-09 22:00N 37°44' W 025°40'0 0.0
2017-Oct-09 21:30N 37°44' W 025°40'0 0.0
2017-Oct-09 21:00N 37°44' W 025°40'0 0.0
2017-Oct-09 20:30N 37°44' W 025°40'0 0.0
2017-Oct-09 20:00N 37°44' W 025°40'0 0.0
2017-Oct-09 19:30N 37°44' W 025°40'0 0.0
2017-Oct-09 19:00N 37°44' W 025°40'0 0.0
2017-Oct-09 18:30N 37°44' W 025°40'0 0.0
2017-Oct-09 18:00N 37°44' W 025°40'0 0.0
2017-Oct-09 17:30N 37°44' W 025°40'0 0.0
2017-Oct-09 17:00N 37°44' W 025°40'0 0.0
2017-Oct-09 16:30N 37°44' W 025°40'0 0.0
2017-Oct-09 16:00N 37°44' W 025°40'0 0.0
2017-Oct-09 15:30N 37°44' W 025°40'0 0.0
2017-Oct-09 15:00N 37°44' W 025°40'0 0.0
2017-Oct-09 14:30N 37°44' W 025°40'0 0.0
2017-Oct-09 14:00N 37°44' W 025°40'0 0.0
2017-Oct-09 13:30N 37°44' W 025°40'0 0.0
2017-Oct-09 13:00N 37°44' W 025°40'0 0.0
2017-Oct-09 12:30N 37°44' W 025°40'0 0.0
2017-Oct-09 12:00N 37°44' W 025°40'0 0.0
2017-Oct-09 11:31N 37°44' W 025°40'0 0.0
2017-Oct-09 11:00N 37°44' W 025°40'0 0.0
2017-Oct-09 10:30N 37°44' W 025°40'0 0.0
2017-Oct-09 10:01N 37°44' W 025°40'0 0.0
2017-Oct-09 09:30N 37°44' W 025°40'0 0.0
2017-Oct-09 09:00N 37°44' W 025°40'0 0.0
2017-Oct-09 08:31N 37°44' W 025°40'0 0.0
2017-Oct-09 08:00N 37°44' W 025°40'0 0.0
2017-Oct-09 07:30N 37°44' W 025°40'1 2.4
2017-Oct-09 07:01N 37°43' W 025°39'2 4.1
2017-Oct-09 06:31N 37°42' W 025°36'4 7.0
2017-Oct-09 06:00N 37°42' W 025°41'511.0
2017-Oct-09 05:30N 37°42' W 025°48'713.4
2017-Oct-09 05:01N 37°42' W 025°39'713.1
2017-Oct-09 04:30N 37°41' W 025°31'612.9
2017-Oct-09 04:00N 37°40' W 025°23'612.8
2017-Oct-09 03:31N 37°41' W 025°15'612.8
2017-Oct-09 03:00N 37°41' W 025°07'613.0
2017-Oct-09 02:30N 37°42' W 024°59'612.9
2017-Oct-09 02:01N 37°43' W 024°51'612.8
2017-Oct-09 01:30N 37°44' W 024°43'613.0
2017-Oct-09 01:00N 37°45' W 024°35'713.1
2017-Oct-09 00:30N 37°45' W 024°26'612.9
2017-Oct-09 00:00N 37°46' W 024°18'612.8
2017-Oct-08 23:30N 37°47' W 024°10'612.9
2017-Oct-08 23:00N 37°47' W 024°02'713.0
2017-Oct-08 22:30N 37°48' W 023°54'712.7
2017-Oct-08 21:59N 37°49' W 023°45'48113.5
2017-Oct-07 10:22N 38°23' W 013°36'513.7
2017-Oct-07 10:00N 38°23' W 013°30'913.8
2017-Oct-07 09:20N 38°24' W 013°18'513.8
2017-Oct-07 09:00N 38°24' W 013°12'713.9
2017-Oct-07 08:28N 38°24' W 013°03'613.6
2017-Oct-07 08:00N 38°25' W 012°55'713.4
2017-Oct-07 07:30N 38°25' W 012°46'713.3
2017-Oct-07 07:00N 38°26' W 012°38'713.6
2017-Oct-07 06:30N 38°26' W 012°29'713.8
2017-Oct-07 06:00N 38°26' W 012°20'713.7
2017-Oct-07 05:30N 38°26' W 012°12'713.8
2017-Oct-07 05:00N 38°27' W 012°03'713.9
2017-Oct-07 04:30N 38°27' W 011°54'713.9
2017-Oct-07 04:00N 38°27' W 011°45'713.7
2017-Oct-07 03:30N 38°28' W 011°36'713.5
2017-Oct-07 03:00N 38°28' W 011°28'713.9
2017-Oct-07 02:30N 38°28' W 011°19'713.8
2017-Oct-07 02:00N 38°28' W 011°10'  
Track history (hours):
 
Tides and Currents Weather Stations Pressure Air Temp Water Temp Dewpoint Dewpoint Depression Visibility Wind Speed Wind Dir Waves Ship Positions

Furnas

Last reported at 2017-Oct-17 01:58 UTC. Time now 2017-Oct-17 02:21 UTC.
Position N 38°43' W 009°07'.

Length 100 m; draft 6.2 m.

Type: Ship. MMSI: 204708000.

Date/timePositionNaut miles runAvg speedWind from/ knotsBaromVisibWave heightAir tempDewpointWater temp
2017-Oct-17 01:58N 38°43' W 009°07'0 0.0
2017-Oct-17 01:28N 38°43' W 009°07'0 0.0
2017-Oct-17 00:58N 38°43' W 009°07'0 0.0
2017-Oct-17 00:28N 38°43' W 009°07'0 0.0
2017-Oct-16 23:58N 38°43' W 009°07'0 0.0
2017-Oct-16 22:07N 38°43' W 009°07'0 0.0
2017-Oct-16 21:01N 38°43' W 009°07'0 0.0
2017-Oct-16 20:37N 38°43' W 009°07'0 0.0
2017-Oct-16 20:25N 38°43' W 009°07'0 0.0
2017-Oct-16 19:55N 38°43' W 009°07'0 0.0
2017-Oct-16 19:28N 38°43' W 009°07'0 0.0
2017-Oct-16 18:58N 38°43' W 009°07'0 0.0
2017-Oct-16 18:28N 38°43' W 009°07'0 0.0
2017-Oct-16 17:55N 38°43' W 009°07'0 0.0
2017-Oct-16 17:19N 38°43' W 009°07'0 0.0
2017-Oct-16 16:58N 38°43' W 009°07'0 0.0
2017-Oct-16 16:28N 38°43' W 009°07'0 0.0
2017-Oct-16 15:55N 38°43' W 009°07'0 0.0
2017-Oct-16 15:25N 38°43' W 009°07'0 0.0
2017-Oct-16 14:58N 38°43' W 009°07'0 0.0
2017-Oct-16 13:58N 38°43' W 009°07'0 0.0
2017-Oct-16 13:25N 38°43' W 009°07'0 0.0
2017-Oct-16 12:55N 38°43' W 009°07'0 0.0
2017-Oct-16 12:28N 38°43' W 009°07'0 0.0
2017-Oct-16 11:58N 38°43' W 009°07'0 0.0
2017-Oct-16 11:28N 38°43' W 009°07'0 0.0
2017-Oct-16 10:58N 38°43' W 009°07'0 0.0
2017-Oct-16 10:25N 38°43' W 009°07'0 0.0
2017-Oct-16 09:58N 38°43' W 009°07'0 0.0
2017-Oct-16 09:04N 38°43' W 009°07'0 0.0
2017-Oct-16 06:28N 38°43' W 009°07'0 0.0
2017-Oct-16 05:58N 38°43' W 009°07'0 0.0
2017-Oct-16 05:28N 38°43' W 009°07'0 0.0
2017-Oct-16 04:58N 38°43' W 009°07'0 0.0
2017-Oct-16 04:25N 38°43' W 009°07'0 0.0
2017-Oct-16 03:58N 38°43' W 009°07'0 0.0
2017-Oct-16 03:28N 38°43' W 009°07'0 0.0
2017-Oct-16 02:56N 38°43' W 009°07'0 0.2
2017-Oct-16 02:30N 38°43' W 009°07'4 7.8
2017-Oct-16 02:00N 38°41' W 009°11'612.7
2017-Oct-16 01:30N 38°40' W 009°19'713.8
2017-Oct-16 01:00N 38°36' W 009°26'714.2
2017-Oct-16 00:30N 38°35' W 009°35'714.2
2017-Oct-16 00:00N 38°33' W 009°44'714.1
2017-Oct-15 23:30N 38°31' W 009°53'713.8
2017-Oct-15 23:00N 38°30' W 010°01'713.8
2017-Oct-15 22:30N 38°29' W 010°10'713.7
2017-Oct-15 22:01N 38°29' W 010°19'713.6
2017-Oct-15 21:31N 38°28' W 010°28'713.4
2017-Oct-15 21:01N 38°28' W 010°36'713.2
2017-Oct-15 20:31N 38°27' W 010°44'713.4
2017-Oct-15 20:00N 38°27' W 010°53'713.6
2017-Oct-15 19:30N 38°26' W 011°02'713.8
2017-Oct-15 19:00N 38°25' W 011°10'713.9
2017-Oct-15 18:30N 38°25' W 011°19'713.9
2017-Oct-15 18:00N 38°24' W 011°28'714.3
2017-Oct-15 17:31N 38°23' W 011°37'714.6
2017-Oct-15 17:00N 38°22' W 011°46'714.5
2017-Oct-15 16:30N 38°21' W 011°56'714.5
2017-Oct-15 16:00N 38°20' W 012°05'714.2
2017-Oct-15 15:30N 38°19' W 012°14'714.2
2017-Oct-15 15:00N 38°18' W 012°23'1414.2
2017-Oct-15 14:00N 38°16' W 012°40'714.2
2017-Oct-15 13:30N 38°15' W 012°49'714.2
2017-Oct-15 13:00N 38°14' W 012°58'714.1
2017-Oct-15 12:30N 38°13' W 013°07'714.2
2017-Oct-15 12:01N 38°12' W 013°16'2813.7
2017-Oct-15 09:59N 38°07' W 013°51'41914.1
2017-Oct-14 04:10N 37°41' W 022°41'1814.1
2017-Oct-14 02:54N 37°41' W 023°04'814.1
2017-Oct-14 02:19N 37°41' W 023°14'1114.4
2017-Oct-14 01:31N 37°41' W 023°29'113.5
2017-Oct-14 01:29N 37°41' W 023°29'714.4
2017-Oct-14 01:00N 37°41' W 023°38'714.3
2017-Oct-14 00:30N 37°40' W 023°47'714.3
2017-Oct-14 00:00N 37°40' W 023°56'714.3
2017-Oct-13 23:30N 37°40' W 024°05'714.2
2017-Oct-13 23:00N 37°40' W 024°14'714.4
2017-Oct-13 22:30N 37°40' W 024°23'714.6
2017-Oct-13 22:00N 37°40' W 024°32'714.5
2017-Oct-13 21:30N 37°40' W 024°42'714.2
2017-Oct-13 21:01N 37°40' W 024°51'714.0
2017-Oct-13 20:30N 37°40' W 024°59'714.3
2017-Oct-13 20:00N 37°40' W 025°08'714.5
2017-Oct-13 19:31N 37°40' W 025°18'714.1
2017-Oct-13 19:01N 37°40' W 025°26'713.6
2017-Oct-13 18:31N 37°42' W 025°35'5 9.5
2017-Oct-13 18:00N 37°44' W 025°40'0 0.0
2017-Oct-13 17:30N 37°44' W 025°40'0 0.0
2017-Oct-13 17:00N 37°44' W 025°40'0 0.0
2017-Oct-13 16:30N 37°44' W 025°40'0 0.0
2017-Oct-13 16:00N 37°44' W 025°40'0 0.0
2017-Oct-13 15:30N 37°44' W 025°40'0 0.0
2017-Oct-13 15:00N 37°44' W 025°40'0 0.0
2017-Oct-13 14:30N 37°44' W 025°40'0 0.0
2017-Oct-13 14:00N 37°44' W 025°40'0 0.0
2017-Oct-13 13:30N 37°44' W 025°40'0 0.0
2017-Oct-13 13:00N 37°44' W 025°40'0 0.0
2017-Oct-13 12:30N 37°44' W 025°40'0 0.0
2017-Oct-13 12:00N 37°44' W 025°40'0 0.0
2017-Oct-13 11:30N 37°44' W 025°40'0 0.0
2017-Oct-13 11:00N 37°44' W 025°40'0 0.0
2017-Oct-13 10:30N 37°44' W 025°40'0 0.0
2017-Oct-13 10:00N 37°44' W 025°40'0 0.0
2017-Oct-13 09:30N 37°44' W 025°40'0 0.0
2017-Oct-13 09:00N 37°44' W 025°40'0 0.0
2017-Oct-13 08:30N 37°44' W 025°40'0 0.0
2017-Oct-13 08:00N 37°44' W 025°40'0 0.0
2017-Oct-13 07:30N 37°44' W 025°40'0 0.0
2017-Oct-13 07:00N 37°44' W 025°40'0 0.0
2017-Oct-13 06:30N 37°44' W 025°40'0 0.0
2017-Oct-13 06:00N 37°44' W 025°40'0 0.0
2017-Oct-13 05:30N 37°44' W 025°40'0 0.0
2017-Oct-13 05:00N 37°44' W 025°40'0 0.0
2017-Oct-13 04:30N 37°44' W 025°40'0 0.0
2017-Oct-13 04:00N 37°44' W 025°40'0 0.0
2017-Oct-13 03:30N 37°44' W 025°40'0 0.0
2017-Oct-13 03:00N 37°44' W 025°40'0 0.0
2017-Oct-13 02:30N 37°44' W 025°40'0 0.0
2017-Oct-13 02:00N 37°44' W 025°40'0 0.0
2017-Oct-13 01:30N 37°44' W 025°40'0 0.0
2017-Oct-13 01:00N 37°44' W 025°40'0 0.0
2017-Oct-13 00:30N 37°44' W 025°40'0 0.0
2017-Oct-13 00:00N 37°44' W 025°40'0 0.0
2017-Oct-12 23:30N 37°44' W 025°40'0 0.0
2017-Oct-12 23:00N 37°44' W 025°40'0 0.0
2017-Oct-12 22:30N 37°44' W 025°40'4 7.4
2017-Oct-12 22:00N 37°41' W 025°37'815.4
2017-Oct-12 21:30N 37°35' W 025°32'815.5
2017-Oct-12 21:00N 37°28' W 025°28'815.5
2017-Oct-12 20:31N 37°21' W 025°24'815.5
2017-Oct-12 20:00N 37°13' W 025°21'815.3
2017-Oct-12 19:30N 37°06' W 025°17'815.3
2017-Oct-12 19:00N 36°59' W 025°13'4 8.3
2017-Oct-12 18:29N 36°57' W 025°09'0 0.0
2017-Oct-12 17:56N 36°57' W 025°09'0 0.0
2017-Oct-12 17:29N 36°57' W 025°09'0 0.0
2017-Oct-12 16:59N 36°57' W 025°09'0 0.0
2017-Oct-12 16:29N 36°57' W 025°09'0 0.0
2017-Oct-12 15:59N 36°57' W 025°09'0 0.0
2017-Oct-12 15:29N 36°57' W 025°09'0 0.0
2017-Oct-12 14:56N 36°57' W 025°09'0 0.0
2017-Oct-12 14:29N 36°57' W 025°09'0 0.0
2017-Oct-12 13:59N 36°57' W 025°09'0 0.0
2017-Oct-12 13:29N 36°57' W 025°09'0 0.0
2017-Oct-12 12:59N 36°57' W 025°09'0 0.0
2017-Oct-12 12:26N 36°57' W 025°09'0 0.0
2017-Oct-12 11:59N 36°57' W 025°09'0 0.0
2017-Oct-12 11:29N 36°57' W 025°09'0 0.0
2017-Oct-12 10:59N 36°57' W 025°09'0 0.0
2017-Oct-12 10:29N 36°57' W 025°09'0 0.0
2017-Oct-12 09:59N 36°57' W 025°09'3 5.6
2017-Oct-12 09:30N 36°54' W 025°11'714.7
2017-Oct-12 09:00N 36°58' W 025°19'815.0
2017-Oct-12 08:30N 37°02' W 025°27'815.2
2017-Oct-12 08:00N 37°06' W 025°35'815.1
2017-Oct-12 07:30N 37°10' W 025°43'714.7
2017-Oct-12 07:00N 37°14' W 025°50'715.1
2017-Oct-12 06:30N 37°19' W 025°58'815.2
2017-Oct-12 06:00N 37°23' W 026°06'815.2
2017-Oct-12 05:30N 37°27' W 026°14'815.1
2017-Oct-12 05:00N 37°31' W 026°22'815.1
2017-Oct-12 04:30N 37°36' W 026°30'714.9
2017-Oct-12 04:00N 37°40' W 026°37'714.7
2017-Oct-12 03:30N 37°45' W 026°45'714.7
2017-Oct-12 03:00N 37°49' W 026°52'714.8
2017-Oct-12 02:30N 37°54' W 026°59'815.1
2017-Oct-12 02:00N 37°59' W 027°07'815.3
2017-Oct-12 01:30N 38°03' W 027°14'814.9
2017-Oct-12 01:00N 38°08' W 027°22'814.9
2017-Oct-12 00:30N 38°13' W 027°29'714.6
2017-Oct-12 00:00N 38°17' W 027°37'915.3
2017-Oct-11 23:26N 38°23' W 027°45'715.1
2017-Oct-11 22:59N 38°27' W 027°52'714.9
2017-Oct-11 22:30N 38°31' W 027°59'815.2
2017-Oct-11 22:00N 38°36' W 028°07'612.4
2017-Oct-11 21:30N 38°41' W 028°12'0 0.4
2017-Oct-11 20:58N 38°41' W 028°12'0 0.0
2017-Oct-11 20:28N 38°41' W 028°12'0 0.0
2017-Oct-11 19:52N 38°41' W 028°12'0 0.0
2017-Oct-11 19:28N 38°41' W 028°12'1 3.3
2017-Oct-11 19:00N 38°39' W 028°13'1 2.5
2017-Oct-11 18:24N 38°41' W 028°12'55 3.0
2017-Oct-10 23:50N 38°43' W 027°01'1 4.0
2017-Oct-10 23:28N 38°43' W 027°03'0 0.0
2017-Oct-10 16:19N 38°43' W 027°03'0 0.0
2017-Oct-10 09:04N 38°43' W 027°03'0 0.0
2017-Oct-10 08:52N 38°43' W 027°03'0 0.0
2017-Oct-10 08:13N 38°43' W 027°03'0 0.0
2017-Oct-10 07:15N 38°43' W 027°03'2 4.7
2017-Oct-10 06:49N 38°43' W 027°01'2 7.1
2017-Oct-10 06:31N 38°41' W 026°60'1 2.3
2017-Oct-10 05:55N 38°43' W 026°60'512.0
2017-Oct-10 05:30N 38°39' W 026°55'713.8
2017-Oct-10 05:01N 38°34' W 026°49'714.1
2017-Oct-10 04:30N 38°29' W 026°43'714.3
2017-Oct-10 04:00N 38°24' W 026°37'714.3
2017-Oct-10 03:31N 38°19' W 026°30'714.4
2017-Oct-10 03:01N 38°14' W 026°24'714.6
2017-Oct-10 02:31N 38°08' W 026°18'714.5
2017-Oct-10 02:01N 38°03' W 026°12'714.7
2017-Oct-10 01:31N 37°58' W 026°05'815.1
2017-Oct-10 01:00N 37°52' W 025°59'815.1
2017-Oct-10 00:30N 37°47' W 025°52'714.2
2017-Oct-10 00:01N 37°43' W 025°45'4 8.7
2017-Oct-09 23:31N 37°44' W 025°40'0 0.4
2017-Oct-09 23:00N 37°44' W 025°40'0 0.0
2017-Oct-09 22:30N 37°44' W 025°40'0 0.0
2017-Oct-09 22:00N 37°44' W 025°40'0 0.0
2017-Oct-09 21:30N 37°44' W 025°40'0 0.0
2017-Oct-09 21:00N 37°44' W 025°40'0 0.0
2017-Oct-09 20:30N 37°44' W 025°40'0 0.0
2017-Oct-09 20:00N 37°44' W 025°40'0 0.0
2017-Oct-09 19:30N 37°44' W 025°40'0 0.0
2017-Oct-09 19:00N 37°44' W 025°40'0 0.0
2017-Oct-09 18:30N 37°44' W 025°40'0 0.0
2017-Oct-09 18:00N 37°44' W 025°40'0 0.0
2017-Oct-09 17:30N 37°44' W 025°40'0 0.0
2017-Oct-09 17:00N 37°44' W 025°40'0 0.0
2017-Oct-09 16:30N 37°44' W 025°40'0 0.0
2017-Oct-09 16:00N 37°44' W 025°40'0 0.0
2017-Oct-09 15:30N 37°44' W 025°40'0 0.0
2017-Oct-09 15:00N 37°44' W 025°40'0 0.0
2017-Oct-09 14:30N 37°44' W 025°40'0 0.0
2017-Oct-09 14:00N 37°44' W 025°40'0 0.0
2017-Oct-09 13:30N 37°44' W 025°40'0 0.0
2017-Oct-09 13:00N 37°44' W 025°40'0 0.0
2017-Oct-09 12:30N 37°44' W 025°40'0 0.0
2017-Oct-09 12:00N 37°44' W 025°40'0 0.0
2017-Oct-09 11:31N 37°44' W 025°40'0 0.0
2017-Oct-09 11:00N 37°44' W 025°40'0 0.0
2017-Oct-09 10:30N 37°44' W 025°40'0 0.0
2017-Oct-09 10:01N 37°44' W 025°40'0 0.0
2017-Oct-09 09:30N 37°44' W 025°40'0 0.0
2017-Oct-09 09:00N 37°44' W 025°40'0 0.0
2017-Oct-09 08:31N 37°44' W 025°40'0 0.0
2017-Oct-09 08:00N 37°44' W 025°40'0 0.0
2017-Oct-09 07:30N 37°44' W 025°40'1 2.4
2017-Oct-09 07:01N 37°43' W 025°39'2 4.1
2017-Oct-09 06:31N 37°42' W 025°36'4 7.0
2017-Oct-09 06:00N 37°42' W 025°41'511.0
2017-Oct-09 05:30N 37°42' W 025°48'713.4
2017-Oct-09 05:01N 37°42' W 025°39'713.1
2017-Oct-09 04:30N 37°41' W 025°31'612.9
2017-Oct-09 04:00N 37°40' W 025°23'612.8
2017-Oct-09 03:31N 37°41' W 025°15'612.8
2017-Oct-09 03:00N 37°41' W 025°07'613.0
2017-Oct-09 02:30N 37°42' W 024°59'612.9
2017-Oct-09 02:01N 37°43' W 024°51'612.8
2017-Oct-09 01:30N 37°44' W 024°43'613.0
2017-Oct-09 01:00N 37°45' W 024°35'713.1
2017-Oct-09 00:30N 37°45' W 024°26'612.9
2017-Oct-09 00:00N 37°46' W 024°18'612.8
2017-Oct-08 23:30N 37°47' W 024°10'612.9
2017-Oct-08 23:00N 37°47' W 024°02'713.0
2017-Oct-08 22:30N 37°48' W 023°54'712.7
2017-Oct-08 21:59N 37°49' W 023°45'48113.5
2017-Oct-07 10:22N 38°23' W 013°36'513.7
2017-Oct-07 10:00N 38°23' W 013°30'913.8
2017-Oct-07 09:20N 38°24' W 013°18'513.8
2017-Oct-07 09:00N 38°24' W 013°12'713.9
2017-Oct-07 08:28N 38°24' W 013°03'613.6
2017-Oct-07 08:00N 38°25' W 012°55'713.4
2017-Oct-07 07:30N 38°25' W 012°46'713.3
2017-Oct-07 07:00N 38°26' W 012°38'713.6
2017-Oct-07 06:30N 38°26' W 012°29'713.8
2017-Oct-07 06:00N 38°26' W 012°20'713.7
2017-Oct-07 05:30N 38°26' W 012°12'713.8
2017-Oct-07 05:00N 38°27' W 012°03'713.9
2017-Oct-07 04:30N 38°27' W 011°54'713.9
2017-Oct-07 04:00N 38°27' W 011°45'713.7
2017-Oct-07 03:30N 38°28' W 011°36'713.5
2017-Oct-07 03:00N 38°28' W 011°28'713.9
2017-Oct-07 02:30N 38°28' W 011°19'713.8
2017-Oct-07 02:00N 38°28' W 011°10'  

Dump ship's entire track history